Time;durP1;ratioP1;P1;durP2;ratioP2;P2;SDS_P1;SDS_P2;PMS_P1;PMS_P2;Temp;Humidity;BMP_temperature;BMP_pressure;BME280_temperature;BME280_humidity;BME280_pressure;Samples;Min_cycle;Max_cycle;Signal;HPM_P1;HPM_P2
2021/07/12 00:00:58;;;;;;;6.10;4.13;;;;;;;;;;6215501;23;20675;-89
2021/07/12 00:04:02;;;;;;;7.65;4.57;;;;;;;;;;6233828;23;20259;-90
2021/07/12 00:14:18;;;;;;;6.18;4.38;;;;;;;;;;6235452;23;20182;-90
2021/07/12 00:17:23;;;;;;;9.20;4.93;;;;;;;;;;6233102;23;20197;-89
2021/07/12 00:20:29;;;;;;;7.00;4.40;;;;;;;;;;6233004;23;20232;-90
2021/07/12 00:23:34;;;;;;;6.47;4.35;;;;;;;;;;6232350;23;20231;-91
2021/07/12 00:26:39;;;;;;;6.53;4.70;;;;;;;;;;6234600;23;20216;-89
2021/07/12 00:29:46;;;;;;;7.13;4.47;;;;;;;;;;6233456;23;20174;-90
2021/07/12 00:32:53;;;;;;;6.88;4.07;;;;;;;;;;6234683;23;20151;-89
2021/07/12 00:35:59;;;;;;;6.97;4.35;;;;;;;;;;6233188;23;20198;-89
2021/07/12 00:39:05;;;;;;;7.07;4.35;;;;;;;;;;6232103;23;20163;-90
2021/07/12 00:42:10;;;;;;;6.60;4.55;;;;;;;;;;6232289;23;20151;-90
2021/07/12 00:45:18;;;;;;;6.20;4.30;;;;;;;;;;6234009;23;20238;-89
2021/07/12 00:48:25;;;;;;;6.65;4.00;;;;;;;;;;6233703;23;20588;-89
2021/07/12 00:51:31;;;;;;;8.40;4.35;;;;;;;;;;6233070;23;20242;-90
2021/07/12 00:54:36;;;;;;;10.00;4.13;;;;;;;;;;6234855;23;20155;-91
2021/07/12 00:57:42;;;;;;;6.57;4.47;;;;;;;;;;6232735;23;20174;-89
2021/07/12 01:00:50;;;;;;;6.32;4.10;;;;;;;;;;6233842;23;20179;-92
2021/07/12 01:03:55;;;;;;;7.20;4.43;;;;;;;;;;6233748;23;20175;-90
2021/07/12 01:07:01;;;;;;;6.40;4.15;;;;;;;;;;6233909;23;20171;-89
2021/07/12 01:10:08;;;;;;;6.43;4.18;;;;;;;;;;6235612;23;20242;-91
2021/07/12 01:13:21;;;;;;;6.47;3.90;;;;;;;;;;6232637;23;20171;-90
2021/07/12 01:16:42;;;;;;;7.63;3.70;;;;;;;;;;6232455;23;20279;-90
2021/07/12 01:20:06;;;;;;;10.48;3.95;;;;;;;;;;6232477;23;20240;-90
2021/07/12 01:23:23;;;;;;;7.95;4.53;;;;;;;;;;6233348;23;20163;-90
2021/07/12 01:26:49;;;;;;;7.25;4.00;;;;;;;;;;6232170;23;20201;-91
2021/07/12 01:30:05;;;;;;;9.98;3.65;;;;;;;;;;6233335;23;20159;-88
2021/07/12 01:33:18;;;;;;;10.40;3.92;;;;;;;;;;6233390;23;20179;-89
2021/07/12 01:36:26;;;;;;;5.15;3.97;;;;;;;;;;6233578;23;20190;-88
2021/07/12 01:39:35;;;;;;;4.57;3.58;;;;;;;;;;6234313;23;20147;-88
2021/07/12 01:42:43;;;;;;;5.72;3.95;;;;;;;;;;6233783;23;20249;-89
2021/07/12 01:45:56;;;;;;;5.22;3.72;;;;;;;;;;6230348;23;20174;-90
2021/07/12 01:49:04;;;;;;;5.53;4.40;;;;;;;;;;6229745;23;20164;-90
2021/07/12 01:52:17;;;;;;;5.07;3.38;;;;;;;;;;6228993;23;20183;-89
2021/07/12 01:55:28;;;;;;;5.28;3.80;;;;;;;;;;6231807;23;20237;-90
2021/07/12 01:58:38;;;;;;;5.90;3.03;;;;;;;;;;6230825;23;20248;-89
2021/07/12 02:01:44;;;;;;;6.22;3.40;;;;;;;;;;6232223;23;20183;-88
2021/07/12 02:04:56;;;;;;;6.20;3.05;;;;;;;;;;6232879;23;20172;-89
2021/07/12 02:08:02;;;;;;;4.10;2.95;;;;;;;;;;6232211;23;20280;-88
2021/07/12 02:11:10;;;;;;;6.82;3.17;;;;;;;;;;6231656;23;20178;-89
2021/07/12 02:14:18;;;;;;;5.20;3.20;;;;;;;;;;6230439;23;20168;-88
2021/07/12 02:17:25;;;;;;;8.32;4.63;;;;;;;;;;6231576;23;20318;-91
2021/07/12 02:20:42;;;;;;;6.90;3.58;;;;;;;;;;6233497;23;20281;-89
2021/07/12 02:23:48;;;;;;;4.35;3.13;;;;;;;;;;6233877;23;20152;-89
2021/07/12 02:26:56;;;;;;;3.83;2.92;;;;;;;;;;6233453;23;20172;-90
2021/07/12 02:30:04;;;;;;;7.20;2.92;;;;;;;;;;6234199;23;20179;-89
2021/07/12 02:33:11;;;;;;;3.50;2.80;;;;;;;;;;6234682;23;20167;-90
2021/07/12 02:36:19;;;;;;;7.50;3.05;;;;;;;;;;6250762;22;20240;-90
2021/07/12 02:39:28;;;;;;;4.32;2.78;;;;;;;;;;6233125;23;20156;-90
2021/07/12 02:42:34;;;;;;;4.63;2.47;;;;;;;;;;6234831;23;20622;-88
2021/07/12 02:45:40;;;;;;;3.58;2.80;;;;;;;;;;6233321;23;20171;-89
2021/07/12 02:48:46;;;;;;;3.33;2.83;;;;;;;;;;6232026;23;20167;-91
2021/07/12 02:51:54;;;;;;;4.30;3.05;;;;;;;;;;6232993;23;20662;-90
2021/07/12 02:55:01;;;;;;;6.43;3.40;;;;;;;;;;6232094;23;20174;-86
2021/07/12 02:58:06;;;;;;;4.45;3.38;;;;;;;;;;6233125;23;20248;-88
2021/07/12 03:01:11;;;;;;;4.50;3.05;;;;;;;;;;6233419;23;20159;-89
2021/07/12 03:04:16;;;;;;;4.20;3.17;;;;;;;;;;6232370;23;20172;-89
2021/07/12 03:07:26;;;;;;;6.03;3.17;;;;;;;;;;6231738;23;20163;-89
2021/07/12 03:10:32;;;;;;;5.28;3.20;;;;;;;;;;6231976;23;20217;-88
2021/07/12 03:13:43;;;;;;;3.70;2.95;;;;;;;;;;6233794;23;20215;-89
2021/07/12 03:16:51;;;;;;;4.50;3.05;;;;;;;;;;6233048;23;20215;-88
2021/07/12 03:19:59;;;;;;;6.15;2.97;;;;;;;;;;6250190;23;20171;-91
2021/07/12 03:23:10;;;;;;;4.57;3.50;;;;;;;;;;6233174;23;20167;-88
2021/07/12 03:26:22;;;;;;;8.70;3.42;;;;;;;;;;6232165;23;20174;-90
2021/07/12 03:29:30;;;;;;;5.28;3.00;;;;;;;;;;6232244;23;20210;-89
2021/07/12 03:32:35;;;;;;;3.67;2.40;;;;;;;;;;6234247;23;20187;-90
2021/07/12 03:35:45;;;;;;;5.47;2.85;;;;;;;;;;6231216;23;20485;-89
2021/07/12 03:38:54;;;;;;;4.50;2.90;;;;;;;;;;6231658;23;20151;-90
2021/07/12 03:42:01;;;;;;;4.40;2.60;;;;;;;;;;6230535;23;20220;-90
2021/07/12 03:45:07;;;;;;;3.50;2.53;;;;;;;;;;6230063;23;20167;-89
2021/07/12 03:48:14;;;;;;;3.63;2.92;;;;;;;;;;6231882;23;20619;-90
2021/07/12 03:51:24;;;;;;;3.65;2.60;;;;;;;;;;6230847;23;20167;-91
2021/07/12 03:54:34;;;;;;;2.75;2.45;;;;;;;;;;6230130;23;20287;-90
2021/07/12 03:57:39;;;;;;;4.13;2.33;;;;;;;;;;6227406;23;20199;-91
2021/07/12 04:00:50;;;;;;;6.78;2.67;;;;;;;;;;6229061;23;20167;-89
2021/07/12 04:03:56;;;;;;;3.10;2.42;;;;;;;;;;6230211;23;20167;-90
2021/07/12 04:07:03;;;;;;;2.75;2.15;;;;;;;;;;6228584;23;20171;-91
2021/07/12 04:10:11;;;;;;;4.30;2.30;;;;;;;;;;6229018;23;20602;-90
2021/07/12 04:13:16;;;;;;;2.25;2.03;;;;;;;;;;6230720;23;20167;-92
2021/07/12 04:16:21;;;;;;;5.30;2.20;;;;;;;;;;6229427;23;20660;-89
2021/07/12 04:19:26;;;;;;;2.90;1.98;;;;;;;;;;6233111;23;20187;-92
2021/07/12 04:22:32;;;;;;;3.45;1.85;;;;;;;;;;6232141;23;20250;-89
2021/07/12 04:25:39;;;;;;;4.70;1.80;;;;;;;;;;6230690;23;20147;-90
2021/07/12 04:28:45;;;;;;;4.45;2.40;;;;;;;;;;6230925;23;20260;-91
2021/07/12 04:31:50;;;;;;;3.90;1.90;;;;;;;;;;6231743;23;20163;-90
2021/07/12 04:34:55;;;;;;;3.40;2.20;;;;;;;;;;6231846;23;20222;-91
2021/07/12 04:38:00;;;;;;;2.70;1.75;;;;;;;;;;6230820;23;20285;-90
2021/07/12 04:41:06;;;;;;;3.17;1.88;;;;;;;;;;6231467;23;20159;-88
2021/07/12 04:44:12;;;;;;;2.95;1.90;;;;;;;;;;6228720;23;20240;-87
2021/07/12 04:47:17;;;;;;;10.05;2.50;;;;;;;;;;6229464;23;20195;-89
2021/07/12 04:50:23;;;;;;;3.38;2.17;;;;;;;;;;6231686;23;20566;-89
2021/07/12 04:53:28;;;;;;;2.38;1.83;;;;;;;;;;6231468;23;20171;-90
2021/07/12 04:56:35;;;;;;;5.88;2.15;;;;;;;;;;6233019;23;20187;-88
2021/07/12 04:59:41;;;;;;;3.08;2.10;;;;;;;;;;6233279;23;20163;-88
2021/07/12 05:02:46;;;;;;;13.75;4.45;;;;;;;;;;6233894;23;20163;-87
2021/07/12 05:05:51;;;;;;;2.60;1.55;;;;;;;;;;6236519;23;20166;-89
2021/07/12 05:08:59;;;;;;;2.17;1.67;;;;;;;;;;6235677;23;20506;-90
2021/07/12 05:12:09;;;;;;;4.90;1.85;;;;;;;;;;6233521;23;20187;-91
2021/07/12 05:15:14;;;;;;;11.15;3.90;;;;;;;;;;6235062;23;20175;-88
2021/07/12 05:18:20;;;;;;;6.82;2.25;;;;;;;;;;6235795;23;20198;-88
2021/07/12 05:21:25;;;;;;;2.75;2.05;;;;;;;;;;6237097;23;20328;-89
2021/07/12 05:24:30;;;;;;;2.30;1.73;;;;;;;;;;6235523;23;20178;-88
2021/07/12 05:27:37;;;;;;;4.90;2.53;;;;;;;;;;6235750;23;20183;-90
2021/07/12 05:30:48;;;;;;;6.85;2.15;;;;;;;;;;6235027;23;20163;-90
2021/07/12 05:33:53;;;;;;;3.58;2.05;;;;;;;;;;6236676;23;20164;-90
2021/07/12 05:36:59;;;;;;;4.63;2.35;;;;;;;;;;6236270;23;20198;-88
2021/07/12 05:40:05;;;;;;;2.95;2.20;;;;;;;;;;6237098;23;20236;-89
2021/07/12 05:43:11;;;;;;;5.88;2.22;;;;;;;;;;6235110;23;20171;-90
2021/07/12 05:46:17;;;;;;;6.85;2.50;;;;;;;;;;6234598;23;20179;-90
2021/07/12 05:49:22;;;;;;;5.68;2.40;;;;;;;;;;6233440;23;20174;-90
2021/07/12 05:52:31;;;;;;;3.90;2.70;;;;;;;;;;6234793;23;20147;-89
2021/07/12 05:55:36;;;;;;;3.72;2.47;;;;;;;;;;6235212;23;20233;-87
2021/07/12 05:58:43;;;;;;;6.18;2.47;;;;;;;;;;6233217;23;20258;-89
2021/07/12 06:01:48;;;;;;;4.30;2.40;;;;;;;;;;6233263;23;20198;-88
2021/07/12 06:04:53;;;;;;;9.38;2.50;;;;;;;;;;6233674;23;20167;-90
2021/07/12 06:07:59;;;;;;;4.85;2.20;;;;;;;;;;6237346;23;20158;-90
2021/07/12 06:11:05;;;;;;;4.30;2.35;;;;;;;;;;6235069;23;20164;-89
2021/07/12 06:14:11;;;;;;;5.35;2.35;;;;;;;;;;6252764;22;20167;-88
2021/07/12 06:17:16;;;;;;;3.90;2.38;;;;;;;;;;6230981;23;20191;-91
2021/07/12 06:20:21;;;;;;;2.97;2.25;;;;;;;;;;6230311;23;20163;-88
2021/07/12 06:23:26;;;;;;;3.53;1.95;;;;;;;;;;6249493;23;20154;-90
2021/07/12 06:26:31;;;;;;;2.58;1.88;;;;;;;;;;6232325;23;20166;-91
2021/07/12 06:29:37;;;;;;;3.88;1.90;;;;;;;;;;6231788;23;20171;-89
2021/07/12 06:32:43;;;;;;;3.20;1.63;;;;;;;;;;6231422;23;20167;-90
2021/07/12 06:35:48;;;;;;;3.40;1.58;;;;;;;;;;6234845;23;20151;-90
2021/07/12 06:38:53;;;;;;;2.70;1.50;;;;;;;;;;6235153;23;20623;-91
2021/07/12 06:41:58;;;;;;;4.30;2.33;;;;;;;;;;6233821;23;20200;-91
2021/07/12 06:45:08;;;;;;;8.98;2.42;;;;;;;;;;6233144;23;20613;-89
2021/07/12 06:48:13;;;;;;;4.10;2.20;;;;;;;;;;6250291;22;20146;-90
2021/07/12 06:51:18;;;;;;;3.50;2.60;;;;;;;;;;6230558;23;20163;-91
2021/07/12 06:54:23;;;;;;;3.28;2.42;;;;;;;;;;6230460;23;20211;-91
2021/07/12 06:57:28;;;;;;;2.95;2.22;;;;;;;;;;6231666;23;20191;-90
2021/07/12 07:00:35;;;;;;;3.35;2.25;;;;;;;;;;6231227;23;20667;-90
2021/07/12 07:03:40;;;;;;;2.22;1.92;;;;;;;;;;6249140;22;20711;-91
2021/07/12 07:06:46;;;;;;;3.95;2.05;;;;;;;;;;6231448;23;20167;-90
2021/07/12 07:09:51;;;;;;;3.05;1.90;;;;;;;;;;6230062;23;20163;-90
2021/07/12 07:12:56;;;;;;;3.88;1.92;;;;;;;;;;6230335;23;20171;-91
2021/07/12 07:16:04;;;;;;;6.13;1.67;;;;;;;;;;6230857;23;20182;-91
2021/07/12 07:19:11;;;;;;;2.75;1.77;;;;;;;;;;6250050;23;20202;-91
2021/07/12 07:22:17;;;;;;;5.07;2.17;;;;;;;;;;6231505;23;20213;-90
2021/07/12 07:25:26;;;;;;;4.63;3.00;;;;;;;;;;6230988;23;20476;-92
2021/07/12 07:28:35;;;;;;;4.30;3.40;;;;;;;;;;6229252;23;20210;-91
2021/07/12 07:31:41;;;;;;;4.28;3.05;;;;;;;;;;6231023;23;20203;-89
2021/07/12 07:34:47;;;;;;;3.63;3.00;;;;;;;;;;6233310;23;20163;-90
2021/07/12 07:37:53;;;;;;;5.70;3.50;;;;;;;;;;6234046;23;20195;-91
2021/07/12 07:40:59;;;;;;;4.57;3.60;;;;;;;;;;6232384;23;20654;-91
2021/07/12 07:44:04;;;;;;;4.68;3.60;;;;;;;;;;6231575;23;20160;-92
2021/07/12 07:47:11;;;;;;;6.55;4.75;;;;;;;;;;6231965;23;20167;-89
2021/07/12 07:50:17;;;;;;;5.10;3.63;;;;;;;;;;6230088;23;20175;-90
2021/07/12 07:53:25;;;;;;;10.25;4.82;;;;;;;;;;6229627;23;20191;-89
2021/07/12 07:56:33;;;;;;;3.22;2.92;;;;;;;;;;6229639;23;20203;-91
2021/07/12 07:59:38;;;;;;;5.05;2.88;;;;;;;;;;6231417;23;20241;-92
2021/07/12 08:02:45;;;;;;;4.68;2.92;;;;;;;;;;6229914;23;20171;-90
2021/07/12 08:05:51;;;;;;;5.25;2.72;;;;;;;;;;6231969;23;20199;-91
2021/07/12 08:08:56;;;;;;;4.65;2.60;;;;;;;;;;6229715;23;20614;-91
2021/07/12 08:12:01;;;;;;;4.18;2.72;;;;;;;;;;6233102;23;20166;-92
2021/07/12 08:15:07;;;;;;;4.75;2.83;;;;;;;;;;6231154;23;20166;-91
2021/07/12 08:18:15;;;;;;;6.13;3.38;;;;;;;;;;6231612;23;20237;-89
2021/07/12 08:21:20;;;;;;;6.00;3.35;;;;;;;;;;6231961;23;20171;-92
2021/07/12 08:24:27;;;;;;;4.90;2.83;;;;;;;;;;6230955;23;20491;-89
2021/07/12 08:27:32;;;;;;;5.57;3.38;;;;;;;;;;6231528;23;20186;-89
2021/07/12 08:30:38;;;;;;;4.70;3.10;;;;;;;;;;6232889;23;20162;-90
2021/07/12 08:33:47;;;;;;;4.32;3.10;;;;;;;;;;6230496;23;20167;-91
2021/07/12 08:36:52;;;;;;;7.70;3.95;;;;;;;;;;6232624;23;20224;-90
2021/07/12 08:39:57;;;;;;;8.70;3.35;;;;;;;;;;6232927;23;20159;-89
2021/07/12 08:43:02;;;;;;;4.63;3.33;;;;;;;;;;6231886;23;20254;-90
2021/07/12 08:46:07;;;;;;;4.90;3.20;;;;;;;;;;6233255;23;20493;-90
2021/07/12 08:49:16;;;;;;;6.53;3.08;;;;;;;;;;6233574;23;20163;-92
2021/07/12 08:52:22;;;;;;;5.15;3.20;;;;;;;;;;6231866;23;20162;-92
2021/07/12 08:55:28;;;;;;;3.95;2.75;;;;;;;;;;6233527;23;20211;-89
2021/07/12 08:58:35;;;;;;;4.90;2.40;;;;;;;;;;6233498;23;20181;-91
2021/07/12 09:01:41;;;;;;;4.65;2.67;;;;;;;;;;6232852;23;20247;-90
2021/07/12 09:04:48;;;;;;;10.68;2.78;;;;;;;;;;6232803;23;20198;-93
2021/07/12 09:07:54;;;;;;;4.38;3.45;;;;;;;;;;6230315;23;20626;-92
2021/07/12 09:11:04;;;;;;;3.92;2.75;;;;;;;;;;6229701;23;20163;-90
2021/07/12 09:14:10;;;;;;;7.57;3.20;;;;;;;;;;6231780;23;20169;-92
2021/07/12 09:17:15;;;;;;;5.13;3.30;;;;;;;;;;6229822;23;20167;-91
2021/07/12 09:20:27;;;;;;;5.25;3.22;;;;;;;;;;6229054;23;20170;-90
2021/07/12 09:23:33;;;;;;;6.47;3.17;;;;;;;;;;6230023;23;20167;-91
2021/07/12 09:26:41;;;;;;;4.18;2.90;;;;;;;;;;6229666;23;20210;-88
2021/07/12 09:29:47;;;;;;;4.80;2.80;;;;;;;;;;6229875;23;20214;-90
2021/07/12 09:32:55;;;;;;;5.18;3.38;;;;;;;;;;6232079;23;20147;-92
2021/07/12 09:36:15;;;;;;;5.22;3.30;;;;;;;;;;6232685;23;20167;-92
2021/07/12 09:39:25;;;;;;;4.72;3.33;;;;;;;;;;6233298;23;20194;-91
2021/07/12 09:42:32;;;;;;;5.57;3.78;;;;;;;;;;6232470;23;20171;-92
2021/07/12 09:45:39;;;;;;;8.60;3.58;;;;;;;;;;6249839;23;20170;-92
2021/07/12 09:49:04;;;;;;;4.68;3.65;;;;;;;;;;6232505;23;20150;-93
2021/07/12 09:52:11;;;;;;;6.22;3.50;;;;;;;;;;6229771;23;20218;-90
2021/07/12 09:55:30;;;;;;;4.88;3.70;;;;;;;;;;6230852;23;20167;-89
2021/07/12 09:58:36;;;;;;;5.35;4.07;;;;;;;;;;6229203;23;20233;-90
2021/07/12 10:01:41;;;;;;;6.07;3.53;;;;;;;;;;6230494;23;20165;-92
2021/07/12 10:04:48;;;;;;;6.10;3.40;;;;;;;;;;6249541;23;20161;-92
2021/07/12 10:07:53;;;;;;;5.43;3.10;;;;;;;;;;6231137;23;20214;-92
2021/07/12 10:11:00;;;;;;;5.03;3.40;;;;;;;;;;6231152;23;20166;-92
2021/07/12 10:14:06;;;;;;;5.18;3.40;;;;;;;;;;6230969;23;20166;-91
2021/07/12 10:17:13;;;;;;;4.53;2.70;;;;;;;;;;6233141;23;20193;-89
2021/07/12 10:20:18;;;;;;;5.13;2.97;;;;;;;;;;6230597;23;20213;-91
2021/07/12 10:23:25;;;;;;;4.45;3.40;;;;;;;;;;6228520;23;20170;-92
2021/07/12 10:26:51;;;;;;;4.68;2.97;;;;;;;;;;6230945;23;20168;-92
2021/07/12 10:29:57;;;;;;;5.15;3.17;;;;;;;;;;6230859;23;20155;-90
2021/07/12 10:33:03;;;;;;;2.85;2.42;;;;;;;;;;6228997;23;20175;-90
2021/07/12 10:36:10;;;;;;;3.70;2.47;;;;;;;;;;6230007;23;20612;-90
2021/07/12 10:39:15;;;;;;;4.10;2.17;;;;;;;;;;6229536;23;20192;-90
2021/07/12 10:42:38;;;;;;;6.55;2.50;;;;;;;;;;6231873;23;20221;-92
2021/07/12 10:46:02;;;;;;;4.00;2.03;;;;;;;;;;6229794;23;20186;-92
2021/07/12 10:49:27;;;;;;;4.25;2.03;;;;;;;;;;6229677;23;20170;-92
2021/07/12 10:52:57;;;;;;;2.70;1.80;;;;;;;;;;6231170;23;20213;-91
2021/07/12 10:56:09;;;;;;;3.15;2.05;;;;;;;;;;6247549;22;20218;-91
2021/07/12 10:59:28;;;;;;;2.47;2.10;;;;;;;;;;6228049;23;20290;-90
2021/07/12 11:02:35;;;;;;;2.58;1.42;;;;;;;;;;6231229;23;20218;-91
2021/07/12 11:05:59;;;;;;;3.08;2.10;;;;;;;;;;6231474;23;20167;-93
2021/07/12 11:09:04;;;;;;;4.75;2.92;;;;;;;;;;6228079;23;20688;-92
2021/07/12 11:12:24;;;;;;;2.90;2.40;;;;;;;;;;6227247;23;20174;-91
2021/07/12 11:15:31;;;;;;;3.95;2.13;;;;;;;;;;6226603;23;20186;-92
2021/07/12 11:18:38;;;;;;;3.65;1.70;;;;;;;;;;6229373;23;20244;-90
2021/07/12 11:21:43;;;;;;;4.05;1.73;;;;;;;;;;6228528;23;20211;-92
2021/07/12 11:25:01;;;;;;;4.53;1.88;;;;;;;;;;6228670;23;20206;-92
2021/07/12 11:28:38;;;;;;;2.22;1.63;;;;;;;;;;6226671;23;20506;-91
2021/07/12 11:31:44;;;;;;;4.25;1.88;;;;;;;;;;6226964;23;20210;-90
2021/07/12 11:34:55;;;;;;;4.60;1.77;;;;;;;;;;6228114;23;20238;-91
2021/07/12 11:38:01;;;;;;;5.97;1.80;;;;;;;;;;6229381;23;20155;-91
2021/07/12 11:41:07;;;;;;;3.58;1.60;;;;;;;;;;6226531;23;20166;-91
2021/07/12 11:44:14;;;;;;;2.38;1.80;;;;;;;;;;6225339;23;20170;-91
2021/07/12 11:47:21;;;;;;;1.80;1.38;;;;;;;;;;6226831;23;20305;-89
2021/07/12 11:50:29;;;;;;;1.92;1.20;;;;;;;;;;6227368;23;20167;-91
2021/07/12 11:53:34;;;;;;;1.90;1.70;;;;;;;;;;6226122;23;20291;-91
2021/07/12 11:56:41;;;;;;;1.65;1.20;;;;;;;;;;6227334;23;20162;-90
2021/07/12 11:59:47;;;;;;;1.00;0.80;;;;;;;;;;6226501;23;20189;-91
2021/07/12 12:02:56;;;;;;;0.95;0.80;;;;;;;;;;6243306;23;20151;-90
2021/07/12 12:06:04;;;;;;;4.57;1.98;;;;;;;;;;6243672;23;20178;-91
2021/07/12 12:09:09;;;;;;;2.40;0.88;;;;;;;;;;6228916;23;20170;-89
2021/07/12 12:12:21;;;;;;;1.00;0.90;;;;;;;;;;6228662;23;20174;-90
2021/07/12 12:15:27;;;;;;;2.13;0.90;;;;;;;;;;6229312;23;20193;-91
2021/07/12 12:18:32;;;;;;;1.00;0.88;;;;;;;;;;6229480;23;20194;-90
2021/07/12 12:21:40;;;;;;;3.13;0.80;;;;;;;;;;6230952;23;20178;-90
2021/07/12 12:24:51;;;;;;;1.20;0.90;;;;;;;;;;6231088;23;20210;-91
2021/07/12 12:27:57;;;;;;;3.90;1.30;;;;;;;;;;6230796;23;20162;-88
2021/07/12 12:31:05;;;;;;;1.48;1.02;;;;;;;;;;6232371;23;20222;-90
2021/07/12 12:34:13;;;;;;;1.77;0.80;;;;;;;;;;6232332;23;20166;-91
2021/07/12 12:37:20;;;;;;;4.03;1.00;;;;;;;;;;6232644;23;20210;-89
2021/07/12 12:40:26;;;;;;;0.88;0.70;;;;;;;;;;6230165;23;20201;-90
2021/07/12 12:43:34;;;;;;;1.52;1.00;;;;;;;;;;6230685;23;20163;-89
2021/07/12 12:46:40;;;;;;;1.00;0.90;;;;;;;;;;6231309;23;20174;-91
2021/07/12 12:49:46;;;;;;;1.00;0.82;;;;;;;;;;6230750;23;20159;-91
2021/07/12 12:52:53;;;;;;;1.73;0.70;;;;;;;;;;6228632;23;20217;-90
2021/07/12 12:55:58;;;;;;;1.10;0.90;;;;;;;;;;6229137;23;20166;-90
2021/07/12 12:59:05;;;;;;;1.20;0.80;;;;;;;;;;6225712;23;20245;-90
2021/07/12 13:02:11;;;;;;;2.08;1.10;;;;;;;;;;6227897;23;20163;-90
2021/07/12 13:05:18;;;;;;;1.63;0.90;;;;;;;;;;6229416;23;20166;-90
2021/07/12 13:08:24;;;;;;;2.03;1.25;;;;;;;;;;6228469;23;20214;-89
2021/07/12 13:11:29;;;;;;;1.17;0.80;;;;;;;;;;6226514;23;20171;-90
2021/07/12 13:14:34;;;;;;;1.30;1.02;;;;;;;;;;6226615;23;20170;-91
2021/07/12 13:17:40;;;;;;;1.33;1.00;;;;;;;;;;6228165;23;20175;-89
2021/07/12 13:20:46;;;;;;;1.48;1.00;;;;;;;;;;6227264;23;20190;-87
2021/07/12 13:23:53;;;;;;;1.75;0.98;;;;;;;;;;6228777;23;20162;-89
2021/07/12 13:26:58;;;;;;;2.95;1.00;;;;;;;;;;6230799;23;20169;-91
2021/07/12 13:30:06;;;;;;;3.25;1.00;;;;;;;;;;6232254;23;20178;-88
2021/07/12 13:33:16;;;;;;;1.40;1.10;;;;;;;;;;6230174;23;20167;-89
2021/07/12 13:36:23;;;;;;;1.85;1.35;;;;;;;;;;6232734;23;20170;-89
2021/07/12 13:39:30;;;;;;;2.13;1.17;;;;;;;;;;6230591;23;20193;-90
2021/07/12 13:42:35;;;;;;;1.92;1.30;;;;;;;;;;6228547;23;20174;-89
2021/07/12 13:45:40;;;;;;;2.25;1.23;;;;;;;;;;6231679;23;20179;-88
2021/07/12 13:48:45;;;;;;;2.47;1.70;;;;;;;;;;6231936;23;20389;-89
2021/07/12 13:51:50;;;;;;;1.58;1.30;;;;;;;;;;6229228;23;20162;-89
2021/07/12 13:54:57;;;;;;;2.22;1.25;;;;;;;;;;6229790;23;20162;-89
2021/07/12 13:58:03;;;;;;;1.95;1.17;;;;;;;;;;6228464;23;20717;-91
2021/07/12 14:01:09;;;;;;;4.10;1.35;;;;;;;;;;6228287;23;20190;-91
2021/07/12 14:04:15;;;;;;;5.60;1.08;;;;;;;;;;6232046;23;20153;-90
2021/07/12 14:07:29;;;;;;;2.47;1.27;;;;;;;;;;6232471;23;20170;-87
2021/07/12 14:10:35;;;;;;;2.90;1.38;;;;;;;;;;6230236;23;20190;-89
2021/07/12 14:13:41;;;;;;;2.30;1.33;;;;;;;;;;6245911;23;20506;-88
2021/07/12 14:16:46;;;;;;;4.72;1.25;;;;;;;;;;6228477;23;20314;-88
2021/07/12 14:19:52;;;;;;;0.90;0.80;;;;;;;;;;6230007;23;20186;-89
2021/07/12 14:22:57;;;;;;;1.90;1.20;;;;;;;;;;6227256;23;20249;-89
2021/07/12 14:26:04;;;;;;;3.28;1.20;;;;;;;;;;6227425;23;20170;-89
2021/07/12 14:29:10;;;;;;;3.70;1.70;;;;;;;;;;6225875;23;20177;-89
2021/07/12 14:32:17;;;;;;;3.65;1.20;;;;;;;;;;6228433;23;20162;-89
2021/07/12 14:35:23;;;;;;;3.83;1.77;;;;;;;;;;6227919;23;20171;-89
2021/07/12 14:38:27;;;;;;;1.70;1.33;;;;;;;;;;6226917;23;20227;-88
2021/07/12 14:41:34;;;;;;;1.65;1.20;;;;;;;;;;6226764;23;20182;-89
2021/07/12 14:44:39;;;;;;;4.07;2.33;;;;;;;;;;6225330;23;20166;-89
2021/07/12 14:47:44;;;;;;;8.90;2.70;;;;;;;;;;6226660;23;20234;-88
2021/07/12 14:50:53;;;;;;;2.15;1.10;;;;;;;;;;6228545;23;20167;-89
2021/07/12 14:53:59;;;;;;;1.92;1.58;;;;;;;;;;6226835;23;20166;-89
2021/07/12 14:57:06;;;;;;;1.63;1.10;;;;;;;;;;6227903;23;20190;-90
2021/07/12 15:00:11;;;;;;;5.30;1.58;;;;;;;;;;6228013;23;20194;-88
2021/07/12 15:03:17;;;;;;;3.20;1.48;;;;;;;;;;6226613;23;20154;-89
2021/07/12 15:06:22;;;;;;;1.90;1.20;;;;;;;;;;6226896;23;20162;-90
2021/07/12 15:09:29;;;;;;;2.35;1.30;;;;;;;;;;6225949;23;20170;-90
2021/07/12 15:12:35;;;;;;;3.42;1.10;;;;;;;;;;6227380;23;20262;-90
2021/07/12 15:15:42;;;;;;;1.80;1.33;;;;;;;;;;6226769;23;20194;-89
2021/07/12 15:18:47;;;;;;;2.67;1.40;;;;;;;;;;6225114;23;20155;-91
2021/07/12 15:21:52;;;;;;;1.73;1.20;;;;;;;;;;6227451;23;20180;-90
2021/07/12 15:24:59;;;;;;;4.05;1.67;;;;;;;;;;6224939;23;20168;-89
2021/07/12 15:28:06;;;;;;;2.03;1.52;;;;;;;;;;6226566;23;20171;-90
2021/07/12 15:31:11;;;;;;;3.70;1.33;;;;;;;;;;6227194;23;20179;-91
2021/07/12 15:34:16;;;;;;;4.53;1.50;;;;;;;;;;6226509;23;20171;-90
2021/07/12 15:37:21;;;;;;;2.00;1.30;;;;;;;;;;6228565;23;20218;-90
2021/07/12 15:40:26;;;;;;;6.07;1.45;;;;;;;;;;6226522;23;20507;-88
2021/07/12 15:43:33;;;;;;;2.42;1.35;;;;;;;;;;6225407;23;20205;-90
2021/07/12 15:46:38;;;;;;;2.30;1.48;;;;;;;;;;6227143;23;20168;-89
2021/07/12 15:49:48;;;;;;;3.05;1.33;;;;;;;;;;6225502;23;20206;-89
2021/07/12 15:52:54;;;;;;;4.38;2.03;;;;;;;;;;6225730;23;20171;-89
2021/07/12 15:56:00;;;;;;;2.05;1.30;;;;;;;;;;6225178;23;20622;-89
2021/07/12 15:59:06;;;;;;;4.40;2.10;;;;;;;;;;6226991;23;20174;-89
2021/07/12 16:02:12;;;;;;;2.42;1.30;;;;;;;;;;6226928;23;20258;-89
2021/07/12 16:05:18;;;;;;;5.82;2.53;;;;;;;;;;6228555;23;20183;-89
2021/07/12 16:08:23;;;;;;;5.85;3.25;;;;;;;;;;6224205;23;20246;-89
2021/07/12 16:11:29;;;;;;;2.92;1.20;;;;;;;;;;6230295;23;20219;-90
2021/07/12 16:14:35;;;;;;;4.22;1.92;;;;;;;;;;6229290;23;20163;-89
2021/07/12 16:17:41;;;;;;;5.20;2.35;;;;;;;;;;6231690;23;20167;-89
2021/07/12 16:20:47;;;;;;;4.82;1.98;;;;;;;;;;6229701;23;20198;-87
2021/07/12 16:23:52;;;;;;;2.13;1.40;;;;;;;;;;6228212;23;20206;-89
2021/07/12 16:27:01;;;;;;;6.38;2.10;;;;;;;;;;6230434;23;20171;-89
2021/07/12 16:30:08;;;;;;;3.45;1.52;;;;;;;;;;6230050;23;20634;-89
2021/07/12 16:33:17;;;;;;;4.05;1.90;;;;;;;;;;6228758;23;20245;-89
2021/07/12 16:36:23;;;;;;;3.20;1.80;;;;;;;;;;6226444;23;20175;-88
2021/07/12 16:39:28;;;;;;;3.47;1.90;;;;;;;;;;6231767;23;20207;-87
2021/07/12 16:42:33;;;;;;;4.68;1.80;;;;;;;;;;6231323;23;20214;-90
2021/07/12 16:45:40;;;;;;;4.07;2.45;;;;;;;;;;6233019;23;20158;-89
2021/07/12 16:48:45;;;;;;;5.43;1.88;;;;;;;;;;6233559;23;20175;-90
2021/07/12 16:51:50;;;;;;;2.85;1.77;;;;;;;;;;6233413;23;20215;-91
2021/07/12 16:54:57;;;;;;;4.05;1.98;;;;;;;;;;6234245;23;20226;-90
2021/07/12 16:58:03;;;;;;;4.55;2.13;;;;;;;;;;6231764;23;20174;-88
2021/07/12 17:01:10;;;;;;;5.50;1.90;;;;;;;;;;6230304;23;20198;-89
2021/07/12 17:04:15;;;;;;;7.45;3.20;;;;;;;;;;6233048;23;20170;-90
2021/07/12 17:07:21;;;;;;;7.15;2.70;;;;;;;;;;6233569;23;20151;-91
2021/07/12 17:10:26;;;;;;;2.80;1.88;;;;;;;;;;6250061;23;20207;-90
2021/07/12 17:13:32;;;;;;;4.38;1.85;;;;;;;;;;6232518;23;20175;-89
2021/07/12 17:16:38;;;;;;;3.13;1.80;;;;;;;;;;6231476;23;20634;-88
2021/07/12 17:19:43;;;;;;;3.05;1.65;;;;;;;;;;6229725;23;20159;-91
2021/07/12 17:22:49;;;;;;;4.22;2.00;;;;;;;;;;6229554;23;20194;-89
2021/07/12 17:25:54;;;;;;;3.85;1.83;;;;;;;;;;6229013;23;20216;-89
2021/07/12 17:29:00;;;;;;;3.80;2.40;;;;;;;;;;6227582;23;20170;-88
2021/07/12 17:32:07;;;;;;;6.97;1.67;;;;;;;;;;6227779;23;20170;-89
2021/07/12 17:35:13;;;;;;;5.10;1.73;;;;;;;;;;6228142;23;20258;-90
2021/07/12 17:38:20;;;;;;;2.50;1.50;;;;;;;;;;6229722;23;20227;-87
2021/07/12 17:41:25;;;;;;;8.63;2.33;;;;;;;;;;6228460;23;20199;-89
2021/07/12 17:44:31;;;;;;;3.65;1.70;;;;;;;;;;6229289;23;20163;-88
2021/07/12 17:47:38;;;;;;;2.92;1.48;;;;;;;;;;6229105;23;20287;-89
2021/07/12 17:50:43;;;;;;;8.10;2.03;;;;;;;;;;6228401;23;20170;-90
2021/07/12 17:53:48;;;;;;;4.13;2.50;;;;;;;;;;6227966;23;20178;-89
2021/07/12 17:56:53;;;;;;;3.72;1.50;;;;;;;;;;6228518;23;20171;-90
2021/07/12 18:00:07;;;;;;;8.15;2.80;;;;;;;;;;6226710;23;20630;-89
2021/07/12 18:03:19;;;;;;;4.55;2.10;;;;;;;;;;6234399;23;20571;-88
2021/07/12 18:06:25;;;;;;;7.50;2.30;;;;;;;;;;6230614;23;20236;-88
2021/07/12 18:09:31;;;;;;;6.38;2.20;;;;;;;;;;6230723;23;20155;-89
2021/07/12 18:12:36;;;;;;;4.90;1.95;;;;;;;;;;6231551;23;20175;-89
2021/07/12 18:15:42;;;;;;;3.38;2.22;;;;;;;;;;6229458;23;20238;-89
2021/07/12 18:18:48;;;;;;;5.68;2.05;;;;;;;;;;6228871;23;20167;-90
2021/07/12 18:21:53;;;;;;;5.10;2.03;;;;;;;;;;6229623;23;20190;-90
2021/07/12 18:24:59;;;;;;;7.55;2.10;;;;;;;;;;6232228;23;20167;-89
2021/07/12 18:28:07;;;;;;;9.00;2.30;;;;;;;;;;6231222;23;20166;-91
2021/07/12 18:31:12;;;;;;;3.72;2.13;;;;;;;;;;6248020;23;20183;-88
2021/07/12 18:34:20;;;;;;;3.55;2.10;;;;;;;;;;6230121;23;20163;-89
2021/07/12 18:37:26;;;;;;;7.30;2.90;;;;;;;;;;6231075;23;20171;-90
2021/07/12 18:40:32;;;;;;;11.43;2.15;;;;;;;;;;6248784;23;20642;-90
2021/07/12 18:43:38;;;;;;;4.63;2.40;;;;;;;;;;6232012;23;20187;-89
2021/07/12 18:46:43;;;;;;;6.45;2.65;;;;;;;;;;6229247;23;20182;-90
2021/07/12 18:49:49;;;;;;;9.07;3.15;;;;;;;;;;6229742;23;20170;-90